This is the latest recevied weather packets stored in our database for station/object AB0TJ. If no packets are shown the sender has not sent any weather packets the latest 10 day(s).
| Time | Temp. | Humidity | Pressure | Rain* | Wind** | Luminosity | Snow |
|---|---|---|---|---|---|---|---|
| 1777916772 | 15.56° C | 69% | 1011.5 hPa | 1.02 mm | - | 222 W/m² | - |
| 1777916232 | 16.11° C | 69% | 1011.7 hPa | 1.02 mm | - | 237 W/m² | - |
| 1777915739 | 16.67° C | 66% | 1011.6 hPa | 1.02 mm | - | 237 W/m² | - |
| 1777915159 | 17.78° C | 59% | 1012.1 hPa | 0.76 mm | - | 89 W/m² | - |
| 1777914679 | 18.33° C | 52% | 1011.6 hPa | 0.25 mm | - | 99 W/m² | - |
| 1777914119 | 18.33° C | 44% | 1011.5 hPa | 0 mm | - | 122 W/m² | - |
| 1777913564 | 17.78° C | 47% | 1011.4 hPa | 0 mm | - | 480 W/m² | - |
| 1777913064 | 17.78° C | 49% | 1011.8 hPa | 0 mm | - | 172 W/m² | - |
| 1777912544 | 17.22° C | 53% | 1011.8 hPa | 0 mm | - | 603 W/m² | - |
| 1777912044 | 17.22° C | 50% | 1012.1 hPa | 0 mm | - | 159 W/m² | - |
| 1777911550 | 17.22° C | 48% | 1012.3 hPa | 0 mm | - | 140 W/m² | - |
| 1777910979 | 17.22° C | 47% | 1012.5 hPa | 0 mm | - | 82 W/m² | - |
| 1777910384 | 17.22° C | 48% | 1012.4 hPa | 0 mm | - | 366 W/m² | - |
| 1777909879 | 17.22° C | 47% | 1012.6 hPa | 0 mm | - | 87 W/m² | - |
| 1777909284 | 17.22° C | 46% | 1012.4 hPa | 0 mm | - | 333 W/m² | - |
| 1777908712 | 16.67° C | 47% | 1012.5 hPa | 0 mm | - | 219 W/m² | - |
| 1777908149 | 16.67° C | 47% | 1013 hPa | 0 mm | - | 151 W/m² | - |
| 1777907639 | 16.67° C | 48% | 1012.8 hPa | 0 mm | - | 134 W/m² | - |
| 1777907109 | 16.11° C | 49% | 1012.9 hPa | 0 mm | - | 184 W/m² | - |
| 1777906532 | 16.11° C | 50% | 1012.8 hPa | 0 mm | - | 214 W/m² | - |
| 1777906009 | 16.11° C | 50% | 1013.1 hPa | 0 mm | - | 201 W/m² | - |
| 1777905453 | 16.11° C | 49% | 1012.9 hPa | 0 mm | - | 145 W/m² | - |
| 1777904939 | 15.56° C | 50% | 1012.9 hPa | 0 mm | - | 242 W/m² | - |
| 1777904349 | 15.56° C | 51% | 1012.9 hPa | 0 mm | - | 99 W/m² | - |
| 1777903799 | 15° C | 52% | 1012.9 hPa | 0 mm | - | 176 W/m² | - |
* Rain latest hour (hover to see other rain measurements)
** Current wind speed in m/s (hover to see current wind gust speed)